Time,TemperatureF,DewpointF,PressureIn,WindDirection,WindDirectionDegrees,WindSpeedMPH,WindSpeedGustMPH,Humidity,HourlyPrecipIn,Conditions,Clouds,dailyrainin,SoftwareType,DateUTC
2013-04-14 00:00:00,42.7,39.4,29.91,SE,136,0.0,2.0,88,0.00,,OVC075,0.05,VWS V14.01,2013-04-14 04:00:00,
2013-04-14 00:05:00,42.7,39.4,29.91,SE,136,0.0,0.0,88,0.00,,OVC085,0.00,VWS V14.01,2013-04-14 04:05:00,
2013-04-14 00:10:00,42.7,39.4,29.91,SE,136,0.0,0.0,88,0.00,,OVC085,0.00,VWS V14.01,2013-04-14 04:10:00,
2013-04-14 00:15:00,42.7,39.4,29.91,SE,136,0.0,0.0,88,0.00,,OVC085,0.00,VWS V14.01,2013-04-14 04:15:00,
2013-04-14 00:20:00,42.7,39.4,29.92,SE,136,0.0,0.0,88,0.00,,OVC085,0.00,VWS V14.01,2013-04-14 04:20:00,
2013-04-14 00:25:00,42.8,39.5,29.92,SE,136,0.0,0.0,88,0.00,,OVC085,0.00,VWS V14.01,2013-04-14 04:25:00,
2013-04-14 00:30:00,42.8,39.5,29.92,SE,136,1.0,2.0,88,0.00,,OVC085,0.00,VWS V14.01,2013-04-14 04:30:00,
2013-04-14 00:35:00,42.8,39.5,29.92,SE,136,0.0,1.0,88,0.00,,OVC085,0.00,VWS V14.01,2013-04-14 04:35:00,
2013-04-14 00:40:00,42.8,39.8,29.93,SE,136,0.0,2.0,89,0.00,,OVC085,0.00,VWS V14.01,2013-04-14 04:40:00,
2013-04-14 00:45:00,42.8,39.8,29.93,SE,136,0.0,4.0,89,0.00,,OVC085,0.00,VWS V14.01,2013-04-14 04:45:00,
2013-04-14 00:50:00,42.8,39.8,29.93,SE,136,0.0,4.0,89,0.00,,OVC085,0.00,VWS V14.01,2013-04-14 04:50:00,
2013-04-14 00:55:00,42.8,39.8,29.92,SE,136,1.0,4.0,89,0.00,,OVC085,0.00,VWS V14.01,2013-04-14 04:55:00,
2013-04-14 01:00:00,42.9,39.9,29.92,SE,136,0.0,4.0,89,0.00,,-RA,0.00,VWS V14.01,2013-04-14 05:00:00,
2013-04-14 01:30:00,43.4,40.1,29.92,SE,135,0.0,5.0,88,0.00,,-RA,0.00,VWS V14.01,2013-04-14 05:30:00,
2013-04-14 02:00:00,43.8,39.6,29.90,WSW,248,0.0,4.0,85,0.00,,-RA,0.00,VWS V14.01,2013-04-14 06:00:00,
2013-04-14 02:30:00,43.6,39.7,29.90,WSW,248,0.0,0.0,86,0.00,,-RA,0.00,VWS V14.01,2013-04-14 06:30:00,
2013-04-14 03:00:00,43.3,39.4,29.90,WSW,248,0.0,0.0,86,0.00,,-RA,0.00,VWS V14.01,2013-04-14 07:00:00,
2013-04-14 04:00:00,41.0,37.7,29.91,WSW,248,0.0,1.0,88,0.00,,-RA,0.00,VWS V14.01,2013-04-14 08:00:00,
2013-04-14 04:30:00,40.7,38.0,29.92,WSW,248,0.0,2.0,90,0.00,,-RA,0.00,VWS V14.01,2013-04-14 08:30:00,
2013-04-14 05:00:00,41.0,40.2,29.92,WSW,248,0.0,1.0,97,0.00,,-RA,0.00,VWS V14.01,2013-04-14 09:00:00,
2013-04-14 05:30:00,41.2,38.8,29.92,WSW,248,0.0,3.0,91,0.00,,-RA,0.00,VWS V14.01,2013-04-14 09:30:00,
2013-04-14 06:00:00,41.9,38.3,29.93,WSW,248,2.0,7.0,87,0.00,,-RA,0.00,VWS V14.01,2013-04-14 10:00:00,
2013-04-14 06:30:00,42.2,38.0,29.93,WNW,292,3.0,7.0,85,0.00,,-RA,0.00,VWS V14.01,2013-04-14 10:30:00,
2013-04-14 07:00:00,42.7,37.9,29.94,WNW,292,3.0,7.0,83,0.00,,-RA,0.00,VWS V14.01,2013-04-14 11:00:00,
2013-04-14 07:30:00,43.3,38.2,29.95,WNW,292,4.0,9.0,82,0.00,,-RA,0.00,VWS V14.01,2013-04-14 11:30:00,
2013-04-14 08:00:00,44.7,37.6,29.95,WNW,292,5.0,12.0,76,0.00,,-RA,0.00,VWS V14.01,2013-04-14 12:00:00,
2013-04-14 08:30:00,47.0,37.4,29.94,WNW,292,5.0,11.0,69,0.00,,-RA,0.00,VWS V14.01,2013-04-14 12:30:00,
2013-04-14 09:00:00,49.8,36.9,29.94,WNW,292,4.0,13.0,61,0.00,,-RA,0.00,VWS V14.01,2013-04-14 13:00:00,
2013-04-14 09:30:00,49.7,36.0,29.95,WNW,292,6.0,18.0,59,0.00,,-RA,0.00,VWS V14.01,2013-04-14 13:30:00,
2013-04-14 10:00:00,50.1,32.7,29.95,WNW,292,7.0,19.0,51,0.00,,-RA,0.00,VWS V14.01,2013-04-14 14:00:00,
2013-04-14 10:30:00,48.5,33.1,29.96,WNW,292,10.0,22.0,55,0.00,,-RA,0.00,VWS V14.01,2013-04-14 14:30:00,
2013-04-14 11:00:00,47.6,33.6,29.97,WNW,292,7.0,20.0,58,0.00,,-RA,0.00,VWS V14.01,2013-04-14 15:00:00,
2013-04-14 11:30:00,47.4,33.0,29.97,WNW,292,6.0,22.0,57,0.00,,-RA,0.00,VWS V14.01,2013-04-14 15:30:00,
2013-04-14 12:00:00,49.3,32.4,29.96,WNW,292,8.0,21.0,52,0.00,,-RA,0.00,VWS V14.01,2013-04-14 16:00:00,
2013-04-14 12:30:00,50.6,32.2,29.95,WNW,292,7.0,19.0,49,0.00,,-RA,0.00,VWS V14.01,2013-04-14 16:30:00,
2013-04-14 13:00:00,50.2,31.8,29.95,WNW,292,6.0,18.0,49,0.00,,-RA,0.00,VWS V14.01,2013-04-14 17:00:00,
2013-04-14 13:30:00,51.4,29.1,29.95,WSW,248,6.0,15.0,42,0.00,,-RA,0.00,VWS V14.01,2013-04-14 17:30:00,
2013-04-14 14:00:00,52.3,28.1,29.95,WNW,292,8.0,18.0,39,0.00,,-RA,0.00,VWS V14.01,2013-04-14 18:00:00,
2013-04-14 14:30:00,52.1,27.9,29.96,WNW,292,8.0,22.0,39,0.00,,-RA,0.00,VWS V14.01,2013-04-14 18:30:00,
2013-04-14 15:00:00,53.1,27.5,29.96,WNW,292,8.0,23.0,37,0.00,,-RA,0.00,VWS V14.01,2013-04-14 19:00:00,
2013-04-14 15:30:00,52.6,28.4,29.96,West,270,8.0,24.0,39,0.00,,-RA,0.00,VWS V14.01,2013-04-14 19:30:00,
2013-04-14 16:00:00,53.3,28.4,29.97,WNW,292,11.0,29.0,38,0.00,,-RA,0.00,VWS V14.01,2013-04-14 20:00:00,
2013-04-14 16:30:00,52.8,28.5,29.98,WNW,292,11.0,30.0,39,0.00,,-RA,0.00,VWS V14.01,2013-04-14 20:30:00,
2013-04-14 17:00:00,52.8,27.3,29.99,WNW,292,10.0,25.0,37,0.00,,-RA,0.00,VWS V14.01,2013-04-14 21:00:00,
2013-04-14 17:30:00,52.3,27.5,30.01,WNW,292,11.0,25.0,38,0.00,,-RA,0.00,VWS V14.01,2013-04-14 21:30:00,
2013-04-14 18:00:00,51.4,28.5,30.02,WNW,292,10.0,22.0,41,0.00,,-RA,0.00,VWS V14.01,2013-04-14 22:00:00,
2013-04-14 18:30:00,50.5,26.5,30.04,WNW,292,9.0,20.0,39,0.00,,-RA,0.00,VWS V14.01,2013-04-14 22:30:00,
2013-04-14 19:00:00,49.7,27.0,30.05,WNW,292,7.0,18.0,41,0.00,,-RA,0.00,VWS V14.01,2013-04-14 23:00:00,
2013-04-14 19:30:00,48.3,27.4,30.07,WNW,292,5.0,18.0,44,0.00,,-RA,0.00,VWS V14.01,2013-04-14 23:30:00,
2013-04-14 20:00:00,47.4,27.7,30.09,WNW,292,4.0,14.0,46,0.00,,-RA,0.00,VWS V14.01,2013-04-15 00:00:00,
2013-04-14 20:30:00,46.5,27.9,30.11,WNW,292,4.0,9.0,48,0.00,,-RA,0.00,VWS V14.01,2013-04-15 00:30:00,
2013-04-14 21:00:00,45.1,28.1,30.14,WNW,292,2.0,6.0,51,0.00,,-RA,0.00,VWS V14.01,2013-04-15 01:00:00,
2013-04-14 21:30:00,44.6,29.5,30.15,WNW,292,3.0,5.0,55,0.00,,-RA,0.00,VWS V14.01,2013-04-15 01:30:00,
2013-04-14 22:00:00,44.2,30.4,30.16,NW,315,4.0,11.0,58,0.00,,-RA,0.00,VWS V14.01,2013-04-15 02:00:00,
2013-04-14 22:30:00,43.5,30.5,30.16,WNW,292,4.0,8.0,60,0.00,,-RA,0.00,VWS V14.01,2013-04-15 02:30:00,
2013-04-14 23:00:00,42.7,30.6,30.16,WNW,292,4.0,9.0,62,0.00,,-RA,0.00,VWS V14.01,2013-04-15 03:00:00,
2013-04-14 23:30:00,42.2,30.9,30.17,WNW,292,3.0,8.0,64,0.00,,-RA,0.00,VWS V14.01,2013-04-15 03:30:00,